createdAt,value
2018-03-06T00:00:17.794Z,0.62
2018-03-06T00:03:26.654Z,0.57
2018-03-06T00:06:35.793Z,0.57
2018-03-06T00:09:46.681Z,0.57
2018-03-06T00:12:54.693Z,0.52
2018-03-06T00:16:03.193Z,0.56
2018-03-06T00:19:10.547Z,0.53
2018-03-06T00:22:20.083Z,0.51
2018-03-06T00:25:28.708Z,0.46
2018-03-06T00:28:34.893Z,0.46
2018-03-06T00:31:40.798Z,0.45
2018-03-06T00:34:48.080Z,0.39
2018-03-06T00:38:02.156Z,0.39
2018-03-06T00:41:07.729Z,0.37
2018-03-06T00:44:13.547Z,0.35
2018-03-06T00:47:20.313Z,0.33
2018-03-06T00:50:27.319Z,0.32
2018-03-06T00:53:34.600Z,0.30
2018-03-06T00:56:43.132Z,0.27
2018-03-06T00:59:49.653Z,0.26
2018-03-06T01:02:55.393Z,0.25
2018-03-06T01:06:01.422Z,0.23
2018-03-06T01:09:06.961Z,0.19
2018-03-06T01:12:12.827Z,0.17
2018-03-06T01:15:19.249Z,0.16
2018-03-06T01:18:24.870Z,0.10
2018-03-06T01:21:30.704Z,0.05
2018-03-06T01:24:36.267Z,0.05
2018-03-06T01:27:46.917Z,0.03
2018-03-06T01:30:52.555Z,0.01
2018-03-06T01:33:58.541Z,-0.01
2018-03-06T01:37:04.396Z,-0.03
2018-03-06T01:40:09.927Z,-0.05
2018-03-06T01:43:16.319Z,-0.04
2018-03-06T01:46:22.068Z,-0.04
2018-03-06T01:49:28.873Z,-0.05
2018-03-06T01:52:34.403Z,-0.09
2018-03-06T01:55:41.754Z,-0.08
2018-03-06T01:58:47.283Z,-0.10
2018-03-06T02:01:52.866Z,-0.13
2018-03-06T02:05:00.182Z,-0.16
2018-03-06T02:08:05.715Z,-0.20
2018-03-06T02:11:11.142Z,-0.21
2018-03-06T02:14:16.686Z,-0.24
2018-03-06T02:17:22.537Z,-0.27
2018-03-06T02:20:28.099Z,-0.30
2018-03-06T02:23:34.089Z,-0.31
2018-03-06T02:26:39.625Z,-0.33
2018-03-06T02:29:45.889Z,-0.33
2018-03-06T02:32:53.427Z,-0.34
2018-03-06T02:36:02.070Z,-0.34
2018-03-06T02:39:07.832Z,-0.37
2018-03-06T02:42:13.628Z,-0.37
2018-03-06T02:45:19.227Z,-0.35
2018-03-06T02:48:24.956Z,-0.39
2018-03-06T02:51:30.529Z,-0.40
2018-03-06T02:54:36.673Z,-0.38
2018-03-06T02:57:45.352Z,-0.39
2018-03-06T03:00:51.761Z,-0.40
2018-03-06T03:03:57.313Z,-0.40
2018-03-06T03:07:03.104Z,-0.39
2018-03-06T03:10:08.637Z,-0.38
2018-03-06T03:13:14.196Z,-0.37
2018-03-06T03:19:29.280Z,-0.33
2018-03-06T03:22:34.853Z,-0.33
2018-03-06T03:25:40.267Z,-0.33
2018-03-06T03:28:45.822Z,-0.29
2018-03-06T03:31:51.624Z,-0.28
2018-03-06T03:34:57.527Z,-0.30
2018-03-06T03:38:03.281Z,-0.32
2018-03-06T03:41:08.848Z,-0.33
2018-03-06T03:44:14.421Z,-0.33
2018-03-06T03:47:19.982Z,-0.35
2018-03-06T03:50:25.794Z,-0.38
2018-03-06T03:53:31.366Z,-0.37
2018-03-06T03:56:36.901Z,-0.39
2018-03-06T03:59:42.699Z,-0.40
2018-03-06T04:02:48.273Z,-0.40
2018-03-06T04:05:53.853Z,-0.41
2018-03-06T04:08:59.400Z,-0.43
2018-03-06T04:12:04.768Z,-0.44
2018-03-06T04:15:10.342Z,-0.43
2018-03-06T04:21:26.489Z,-0.46
2018-03-06T04:24:32.042Z,-0.47
2018-03-06T04:27:37.641Z,-0.47
2018-03-06T04:30:43.185Z,-0.48
2018-03-06T04:33:48.756Z,-0.50
2018-03-06T04:36:54.292Z,-0.51
2018-03-06T04:40:00.086Z,-0.52
2018-03-06T04:43:05.867Z,-0.54
2018-03-06T04:46:11.409Z,-0.49
2018-03-06T04:49:16.989Z,-0.52
2018-03-06T04:52:22.529Z,-0.48
2018-03-06T04:55:28.321Z,-0.55
2018-03-06T04:58:33.588Z,-0.53
2018-03-06T05:01:39.188Z,-0.56
2018-03-06T05:04:44.733Z,-0.56
2018-03-06T05:07:50.550Z,-0.58
2018-03-06T05:10:56.148Z,-0.57
2018-03-06T05:14:01.689Z,-0.64
2018-03-06T05:17:07.273Z,-0.61
2018-03-06T05:20:13.530Z,-0.62
2018-03-06T05:23:19.103Z,-0.65
2018-03-06T05:26:24.848Z,-0.67
2018-03-06T05:29:30.433Z,-0.63
2018-03-06T05:32:36.033Z,-0.66
2018-03-06T05:35:41.858Z,-0.65
2018-03-06T05:38:47.384Z,-0.65
2018-03-06T05:41:52.944Z,-0.70
2018-03-06T05:44:58.764Z,-0.70
2018-03-06T05:48:04.314Z,-0.70
2018-03-06T05:51:14.093Z,-0.67
2018-03-06T05:58:00.166Z,-0.70
2018-03-06T06:01:05.980Z,-0.75
2018-03-06T06:04:34.111Z,-0.74
2018-03-06T06:07:44.092Z,-0.75
2018-03-06T06:10:49.896Z,-0.78
2018-03-06T06:13:55.824Z,-0.72
2018-03-06T06:17:05.860Z,-0.81
2018-03-06T06:20:12.764Z,-0.80
2018-03-06T06:23:18.624Z,-0.83
2018-03-06T06:26:24.196Z,-0.83
2018-03-06T06:29:29.702Z,-0.86
2018-03-06T06:32:35.254Z,-0.86
2018-03-06T06:35:40.809Z,-0.89
2018-03-06T06:38:46.317Z,-0.87
2018-03-06T06:41:51.864Z,-0.88
2018-03-06T06:44:57.373Z,-0.91
2018-03-06T06:48:02.925Z,-0.93
2018-03-06T06:51:08.436Z,-0.92
2018-03-06T06:54:13.759Z,-0.90
2018-03-06T06:57:19.313Z,-0.93
2018-03-06T07:00:24.865Z,-0.92
2018-03-06T07:03:30.431Z,-0.90
2018-03-06T07:06:35.985Z,-0.86
2018-03-06T07:09:41.486Z,-0.81
2018-03-06T07:12:47.037Z,-0.81
2018-03-06T07:15:52.596Z,-0.75
2018-03-06T07:18:58.157Z,-0.71
2018-03-06T07:22:03.675Z,-0.66
2018-03-06T07:25:09.220Z,-0.60
2018-03-06T07:28:14.773Z,-0.55
2018-03-06T07:31:20.278Z,-0.49
2018-03-06T07:34:25.833Z,-0.47
2018-03-06T07:37:31.336Z,-0.43
2018-03-06T07:40:36.910Z,-0.39
2018-03-06T07:43:42.421Z,-0.36
2018-03-06T07:46:47.993Z,-0.32
2018-03-06T07:49:53.500Z,-0.29
2018-03-06T07:52:59.045Z,-0.27
2018-03-06T07:56:04.602Z,-0.24
2018-03-06T07:59:10.159Z,-0.21
2018-03-06T08:02:15.677Z,-0.17
2018-03-06T08:05:21.237Z,-0.13
2018-03-06T08:08:26.745Z,-0.11
2018-03-06T08:11:32.305Z,-0.07
2018-03-06T08:14:37.817Z,-0.03
2018-03-06T08:17:43.357Z,0.00
2018-03-06T08:20:48.910Z,0.05
2018-03-06T08:23:54.550Z,0.07
2018-03-06T08:27:00.062Z,0.12
2018-03-06T08:30:05.632Z,0.16
2018-03-06T08:33:11.137Z,0.22
2018-03-06T08:36:16.688Z,0.26
2018-03-06T08:39:22.265Z,0.30
2018-03-06T08:42:27.842Z,0.35
2018-03-06T08:45:33.429Z,0.39
2018-03-06T08:48:38.932Z,0.44
2018-03-06T08:51:44.465Z,0.50
2018-03-06T08:54:50.003Z,0.56
2018-03-06T08:57:55.362Z,0.61
2018-03-06T09:01:00.927Z,0.65
2018-03-06T09:04:06.421Z,0.69
2018-03-06T09:07:12.012Z,0.74
2018-03-06T09:10:17.277Z,0.77
2018-03-06T09:13:22.840Z,0.81
2018-03-06T09:16:28.394Z,0.83
2018-03-06T09:19:33.940Z,0.87
2018-03-06T09:22:39.429Z,0.91
2018-03-06T09:25:44.966Z,0.93
2018-03-06T09:28:50.519Z,0.96
2018-03-06T09:31:56.013Z,1.00
2018-03-06T09:35:01.554Z,1.04
2018-03-06T09:38:07.097Z,1.07
2018-03-06T09:41:12.596Z,1.11
2018-03-06T09:44:18.125Z,1.14
2018-03-06T09:47:23.661Z,1.17
2018-03-06T09:50:29.205Z,1.21
2018-03-06T09:53:34.758Z,1.24
2018-03-06T09:56:40.105Z,1.28
2018-03-06T09:59:45.645Z,1.31
2018-03-06T10:02:51.142Z,1.34
2018-03-06T10:05:56.701Z,1.37
2018-03-06T10:09:02.193Z,1.42
2018-03-06T10:12:07.484Z,1.45
2018-03-06T10:15:12.993Z,1.48
2018-03-06T10:18:18.540Z,1.51
2018-03-06T10:21:24.069Z,1.55
2018-03-06T10:24:29.610Z,1.58
2018-03-06T10:27:35.117Z,1.62
2018-03-06T10:30:40.652Z,1.66
2018-03-06T10:33:46.201Z,1.69
2018-03-06T10:36:51.748Z,1.72
2018-03-06T10:39:57.302Z,1.75
2018-03-06T10:43:02.816Z,1.79
2018-03-06T10:46:08.591Z,1.82
2018-03-06T10:49:14.149Z,1.85
2018-03-06T10:52:19.651Z,1.89
2018-03-06T10:55:24.896Z,1.91
2018-03-06T10:58:30.454Z,1.95
2018-03-06T11:01:36.985Z,1.99
2018-03-06T11:04:42.503Z,2.02
2018-03-06T11:07:48.049Z,2.06
2018-03-06T11:10:53.552Z,2.08
2018-03-06T11:13:59.094Z,2.12
2018-03-06T11:17:04.602Z,2.15
2018-03-06T11:20:10.149Z,2.18
2018-03-06T11:23:15.665Z,2.21
2018-03-06T11:26:21.346Z,2.23
2018-03-06T11:29:26.889Z,2.27
2018-03-06T11:32:32.389Z,2.32
2018-03-06T11:35:37.922Z,2.36
2018-03-06T11:38:43.470Z,2.39
2018-03-06T11:41:48.997Z,2.43
2018-03-06T11:44:54.561Z,2.47
2018-03-06T11:48:00.063Z,2.48
2018-03-06T11:51:05.463Z,2.52
2018-03-06T11:54:11.002Z,2.56
2018-03-06T11:57:16.555Z,2.60
2018-03-06T12:00:22.118Z,2.63
2018-03-06T12:03:27.632Z,2.68
2018-03-06T12:06:33.194Z,2.70
2018-03-06T12:09:38.713Z,2.74
2018-03-06T12:12:44.296Z,2.77
2018-03-06T12:15:49.954Z,2.80
2018-03-06T12:18:55.466Z,2.81
2018-03-06T12:22:01.027Z,2.85
2018-03-06T12:25:06.545Z,2.87
2018-03-06T12:28:12.084Z,2.91
2018-03-06T12:31:17.629Z,2.94
2018-03-06T12:34:23.195Z,2.96
2018-03-06T12:37:28.742Z,2.99
2018-03-06T12:40:34.025Z,3.03
2018-03-06T12:43:39.578Z,3.07
2018-03-06T12:46:45.084Z,3.10
2018-03-06T12:49:50.652Z,3.14
2018-03-06T12:52:56.265Z,3.15
2018-03-06T12:56:01.800Z,3.18
2018-03-06T12:59:07.306Z,3.20
2018-03-06T13:02:12.853Z,3.22
2018-03-06T13:05:18.389Z,3.23
2018-03-06T13:08:23.929Z,3.26
2018-03-06T13:11:29.450Z,3.29
2018-03-06T13:14:34.992Z,3.30
2018-03-06T13:17:46.693Z,3.33
2018-03-06T13:20:52.229Z,3.35
2018-03-06T13:23:57.733Z,3.38
2018-03-06T13:27:03.298Z,3.39
2018-03-06T13:30:08.792Z,3.41
2018-03-06T13:33:14.344Z,3.44
2018-03-06T13:36:19.844Z,3.45
2018-03-06T13:39:25.426Z,3.49
2018-03-06T13:42:30.953Z,3.49
2018-03-06T13:45:36.506Z,3.51
2018-03-06T13:48:42.071Z,3.53
2018-03-06T13:51:47.642Z,3.54
2018-03-06T13:54:53.192Z,3.56
2018-03-06T13:57:58.699Z,3.59
2018-03-06T14:01:04.261Z,3.60
2018-03-06T14:04:09.771Z,3.61
2018-03-06T14:07:15.317Z,3.62
2018-03-06T14:10:20.864Z,3.63
2018-03-06T14:13:26.369Z,3.63
2018-03-06T14:16:31.916Z,3.67
2018-03-06T14:19:37.481Z,3.68
2018-03-06T14:22:43.027Z,3.71
2018-03-06T14:25:48.528Z,3.72
2018-03-06T14:28:54.073Z,3.74
2018-03-06T14:31:59.573Z,3.76
2018-03-06T14:35:04.858Z,3.78
2018-03-06T14:38:10.367Z,3.80
2018-03-06T14:41:15.908Z,3.82
2018-03-06T14:44:21.412Z,3.83
2018-03-06T14:47:26.960Z,3.85
2018-03-06T14:50:32.462Z,3.87
2018-03-06T14:53:38.022Z,3.87
2018-03-06T14:56:43.525Z,3.89
2018-03-06T14:59:49.071Z,3.89
2018-03-06T15:02:54.621Z,3.90
2018-03-06T15:06:00.120Z,3.90
2018-03-06T15:09:05.182Z,3.89
2018-03-06T15:12:10.688Z,3.90
2018-03-06T15:15:16.250Z,3.90
2018-03-06T15:18:21.792Z,3.90
2018-03-06T15:21:27.326Z,3.90
2018-03-06T15:24:32.830Z,3.91
2018-03-06T15:27:42.933Z,3.90
2018-03-06T15:30:48.473Z,3.90
2018-03-06T15:33:53.998Z,3.89
2018-03-06T15:36:59.535Z,3.89
2018-03-06T15:40:05.051Z,3.88
2018-03-06T15:43:10.622Z,3.86
2018-03-06T15:46:16.125Z,3.85
2018-03-06T15:49:25.562Z,3.84
2018-03-06T15:52:35.688Z,3.82
2018-03-06T15:55:44.538Z,3.80
2018-03-06T15:58:50.091Z,3.78
2018-03-06T16:01:55.591Z,3.77
2018-03-06T16:05:07.112Z,3.74
2018-03-06T16:08:30.137Z,3.72
2018-03-06T16:11:53.880Z,3.70
2018-03-06T16:19:12.062Z,3.65
2018-03-06T16:22:41.646Z,3.63
2018-03-06T16:26:22.489Z,3.60
2018-03-06T16:29:48.262Z,3.57
2018-03-06T16:33:14.744Z,3.54
2018-03-06T16:36:43.070Z,3.52
2018-03-06T16:40:09.533Z,3.49
2018-03-06T16:43:36.345Z,3.46
2018-03-06T16:46:58.074Z,3.43
2018-03-06T16:50:23.032Z,3.40
2018-03-06T16:53:43.585Z,3.36
2018-03-06T16:57:24.057Z,3.32
2018-03-06T17:00:45.547Z,3.29
2018-03-06T17:07:53.898Z,3.23
2018-03-06T17:14:52.504Z,3.17
2018-03-06T17:18:20.583Z,3.14
2018-03-06T17:21:44.523Z,3.10
2018-03-06T17:25:16.506Z,3.07
2018-03-06T17:28:43.078Z,3.02
2018-03-06T17:32:22.800Z,2.99
2018-03-06T17:35:47.397Z,2.96
2018-03-06T17:39:24.892Z,2.92
2018-03-06T17:42:47.463Z,2.89
2018-03-06T17:46:13.745Z,2.85
2018-03-06T17:49:33.675Z,2.82
2018-03-06T17:52:56.042Z,2.78
2018-03-06T17:56:23.439Z,2.74
2018-03-06T17:59:48.827Z,2.71
2018-03-06T18:03:15.364Z,2.68
2018-03-06T18:06:39.352Z,2.64
2018-03-06T18:10:21.192Z,2.60
2018-03-06T18:14:03.978Z,2.57
2018-03-06T18:17:28.933Z,2.54
2018-03-06T18:20:52.921Z,2.50
2018-03-06T18:24:27.684Z,2.48
2018-03-06T18:27:55.673Z,2.45
2018-03-06T18:31:20.360Z,2.42
2018-03-06T18:34:43.511Z,2.39
2018-03-06T18:38:07.390Z,2.36
2018-03-06T18:41:35.600Z,2.33
2018-03-06T18:45:04.676Z,2.31
2018-03-06T18:48:28.732Z,2.26
2018-03-06T18:52:06.591Z,2.25
2018-03-06T18:55:25.760Z,2.22
2018-03-06T18:58:49.025Z,2.19
2018-03-06T19:02:27.251Z,2.17
2018-03-06T19:05:56.668Z,2.14
2018-03-06T19:09:21.113Z,2.11
2018-03-06T19:12:44.188Z,2.09
2018-03-06T19:16:12.045Z,2.07
2018-03-06T19:19:28.160Z,2.04
2018-03-06T19:22:47.473Z,2.01
2018-03-06T19:26:13.096Z,2.00
2018-03-06T19:29:37.308Z,1.97
2018-03-06T19:33:03.768Z,1.95
2018-03-06T19:36:27.883Z,1.92
2018-03-06T19:39:56.534Z,1.91
2018-03-06T19:43:21.788Z,1.87
2018-03-06T19:47:03.974Z,1.86
2018-03-06T19:50:31.178Z,1.84
2018-03-06T19:54:00.397Z,1.82
2018-03-06T19:57:24.768Z,1.79
2018-03-06T20:01:07.644Z,1.77
2018-03-06T20:04:32.160Z,1.74
2018-03-06T20:08:14.214Z,1.71
2018-03-06T20:11:39.485Z,1.70
2018-03-06T20:15:24.511Z,1.68
2018-03-06T20:18:50.024Z,1.66
2018-03-06T20:22:12.316Z,1.64
2018-03-06T20:25:53.464Z,1.62
2018-03-06T20:29:13.276Z,1.60
2018-03-06T20:32:41.375Z,1.59
2018-03-06T20:36:11.169Z,1.57
2018-03-06T20:39:41.799Z,1.55
2018-03-06T20:43:06.662Z,1.53
2018-03-06T20:46:36.033Z,1.51
2018-03-06T20:49:47.656Z,1.48
2018-03-06T20:53:10.353Z,1.47
2018-03-06T20:56:21.569Z,1.45
2018-03-06T20:59:31.617Z,1.44
2018-03-06T21:02:49.899Z,1.43
2018-03-06T21:06:02.012Z,1.41
2018-03-06T21:09:09.499Z,1.39
2018-03-06T21:12:15.398Z,1.37
2018-03-06T21:15:20.922Z,1.35
2018-03-06T21:18:26.498Z,1.32
2018-03-06T21:21:32.001Z,1.30
2018-03-06T21:24:37.561Z,1.28
2018-03-06T21:27:44.562Z,1.27
2018-03-06T21:30:50.125Z,1.26
2018-03-06T21:33:55.686Z,1.26
2018-03-06T21:37:14.931Z,1.24
2018-03-06T21:40:39.830Z,1.23
2018-03-06T21:43:56.683Z,1.22
2018-03-06T21:47:37.766Z,1.20
2018-03-06T21:51:09.714Z,1.16
2018-03-06T21:54:40.121Z,1.16
2018-03-06T21:58:12.538Z,1.14
2018-03-06T22:01:45.270Z,1.12
2018-03-06T22:04:58.510Z,1.08
2018-03-06T22:08:07.617Z,1.01
2018-03-06T22:11:13.926Z,1.00
2018-03-06T22:14:19.435Z,0.97
2018-03-06T22:17:24.999Z,0.95
2018-03-06T22:20:30.502Z,0.92
2018-03-06T22:23:36.043Z,0.93
2018-03-06T22:26:41.663Z,0.90
2018-03-06T22:29:47.252Z,0.87
2018-03-06T22:32:52.813Z,0.85
2018-03-06T22:35:58.103Z,0.82
2018-03-06T22:39:03.605Z,0.81
2018-03-06T22:42:09.163Z,0.80
2018-03-06T22:45:14.671Z,0.78
2018-03-06T22:48:20.262Z,0.76
2018-03-06T22:51:25.786Z,0.73
2018-03-06T22:54:31.357Z,0.72
2018-03-06T22:57:36.869Z,0.70
2018-03-06T23:00:59.789Z,0.68
2018-03-06T23:04:05.112Z,0.66
2018-03-06T23:07:10.694Z,0.65
2018-03-06T23:10:16.228Z,0.62
2018-03-06T23:13:21.733Z,0.61
2018-03-06T23:16:27.275Z,0.60
2018-03-06T23:19:32.844Z,0.58
2018-03-06T23:22:38.336Z,0.59
2018-03-06T23:25:43.877Z,0.58
2018-03-06T23:28:49.418Z,0.56
2018-03-06T23:31:54.910Z,0.55
2018-03-06T23:35:00.447Z,0.52
2018-03-06T23:38:05.955Z,0.54
2018-03-06T23:41:11.488Z,0.52
2018-03-06T23:44:16.981Z,0.50
2018-03-06T23:47:22.522Z,0.52
2018-03-06T23:50:28.096Z,0.49
2018-03-06T23:53:33.645Z,0.50
2018-03-06T23:56:39.142Z,0.48
2018-03-06T23:59:44.701Z,0.51
